sensor_id;sensor_type;location;lat;lon;timestamp;pressure;altitude;pressure_sealevel;temperature;humidity
77112;BME280;66064;50.226;14.344;2023-03-01T00:02:21;100801.19;;;-5.15;84.65
77112;BME280;66064;50.226;14.344;2023-03-01T00:04:47;100798.31;;;-5.18;84.16
77112;BME280;66064;50.226;14.344;2023-03-01T00:07:13;100790.28;;;-5.21;84.11
77112;BME280;66064;50.226;14.344;2023-03-01T00:09:39;100798.72;;;-5.32;83.44
77112;BME280;66064;50.226;14.344;2023-03-01T00:12:06;100806.03;;;-5.28;83.31
77112;BME280;66064;50.226;14.344;2023-03-01T00:14:32;100803.16;;;-5.31;82.93
77112;BME280;66064;50.226;14.344;2023-03-01T00:16:58;100805.09;;;-5.47;82.10
77112;BME280;66064;50.226;14.344;2023-03-01T00:19:24;100785.75;;;-5.70;84.49
77112;BME280;66064;50.226;14.344;2023-03-01T00:21:50;100800.78;;;-5.66;84.65
77112;BME280;66064;50.226;14.344;2023-03-01T00:24:16;100801.66;;;-5.56;85.85
77112;BME280;66064;50.226;14.344;2023-03-01T00:26:42;100780.16;;;-5.55;85.93
77112;BME280;66064;50.226;14.344;2023-03-01T00:29:08;100786.47;;;-5.43;85.94
77112;BME280;66064;50.226;14.344;2023-03-01T00:31:34;100779.75;;;-5.41;87.42
77112;BME280;66064;50.226;14.344;2023-03-01T00:34:02;100779.41;;;-5.36;86.47
77112;BME280;66064;50.226;14.344;2023-03-01T00:36:32;100792.44;;;-5.25;85.94
77112;BME280;66064;50.226;14.344;2023-03-01T00:38:58;100768.50;;;-5.50;84.56
77112;BME280;66064;50.226;14.344;2023-03-01T00:41:24;100800.19;;;-5.44;85.06
77112;BME280;66064;50.226;14.344;2023-03-01T00:43:52;100761.75;;;-5.67;85.31
77112;BME280;66064;50.226;14.344;2023-03-01T00:46:21;100775.88;;;-5.55;86.19
77112;BME280;66064;50.226;14.344;2023-03-01T00:48:48;100783.50;;;-5.56;86.77
77112;BME280;66064;50.226;14.344;2023-03-01T00:51:19;100778.94;;;-5.59;85.47
77112;BME280;66064;50.226;14.344;2023-03-01T00:53:46;100759.81;;;-5.70;85.22
77112;BME280;66064;50.226;14.344;2023-03-01T00:56:14;100776.38;;;-5.59;84.91
77112;BME280;66064;50.226;14.344;2023-03-01T00:58:40;100754.53;;;-5.80;84.98
77112;BME280;66064;50.226;14.344;2023-03-01T01:01:11;100771.59;;;-5.73;85.24
77112;BME280;66064;50.226;14.344;2023-03-01T01:04:12;100767.94;;;-5.75;85.92
77112;BME280;66064;50.226;14.344;2023-03-01T01:06:47;100766.72;;;-5.79;85.80
77112;BME280;66064;50.226;14.344;2023-03-01T01:09:16;100766.53;;;-5.72;87.56
77112;BME280;66064;50.226;14.344;2023-03-01T01:11:51;100776.31;;;-5.78;86.19
77112;BME280;66064;50.226;14.344;2023-03-01T01:14:18;100763.84;;;-5.82;86.91
77112;BME280;66064;50.226;14.344;2023-03-01T01:16:44;100763.84;;;-5.82;88.36
77112;BME280;66064;50.226;14.344;2023-03-01T01:19:11;100767.16;;;-5.74;87.67
77112;BME280;66064;50.226;14.344;2023-03-01T01:21:37;100768.22;;;-5.72;87.29
77112;BME280;66064;50.226;14.344;2023-03-01T01:24:04;100772.06;;;-5.77;87.68
77112;BME280;66064;50.226;14.344;2023-03-01T01:26:33;100771.16;;;-5.78;87.77
77112;BME280;66064;50.226;14.344;2023-03-01T01:29:00;100768.78;;;-5.85;86.65
77112;BME280;66064;50.226;14.344;2023-03-01T01:31:27;100752.38;;;-5.94;86.76
77112;BME280;66064;50.226;14.344;2023-03-01T01:33:55;100746.91;;;-5.97;86.53
77112;BME280;66064;50.226;14.344;2023-03-01T01:36:21;100764.84;;;-5.90;86.76
77112;BME280;66064;50.226;14.344;2023-03-01T01:38:47;100758.63;;;-5.92;86.98
77112;BME280;66064;50.226;14.344;2023-03-01T01:41:14;100761.22;;;-5.92;86.83
77112;BME280;66064;50.226;14.344;2023-03-01T01:43:45;100743.25;;;-5.99;86.95
77112;BME280;66064;50.226;14.344;2023-03-01T01:46:32;100761.38;;;-5.99;87.76
77112;BME280;66064;50.226;14.344;2023-03-01T01:49:01;100719.00;;;-6.18;88.89
77112;BME280;66064;50.226;14.344;2023-03-01T01:51:33;100765.66;;;-6.00;87.91
77112;BME280;66064;50.226;14.344;2023-03-01T01:54:14;100742.41;;;-6.08;87.92
77112;BME280;66064;50.226;14.344;2023-03-01T01:56:44;100740.56;;;-6.09;88.46
77112;BME280;66064;50.226;14.344;2023-03-01T01:59:12;100757.63;;;-6.03;87.61
77112;BME280;66064;50.226;14.344;2023-03-01T02:01:38;100736.63;;;-6.14;87.22
77112;BME280;66064;50.226;14.344;2023-03-01T02:04:04;100741.16;;;-6.03;88.84
77112;BME280;66064;50.226;14.344;2023-03-01T02:06:39;100738.44;;;-6.05;87.81
77112;BME280;66064;50.226;14.344;2023-03-01T02:09:15;100718.03;;;-6.10;88.40
77112;BME280;66064;50.226;14.344;2023-03-01T02:11:43;100704.00;;;-6.12;87.68
77112;BME280;66064;50.226;14.344;2023-03-01T02:14:10;100737.94;;;-6.01;86.96
77112;BME280;66064;50.226;14.344;2023-03-01T02:16:36;100697.50;;;-6.17;88.12
77112;BME280;66064;50.226;14.344;2023-03-01T02:19:03;100711.63;;;-6.14;88.46
77112;BME280;66064;50.226;14.344;2023-03-01T02:27:09;100728.47;;;-6.27;88.78
77112;BME280;66064;50.226;14.344;2023-03-01T02:29:35;100720.78;;;-6.36;88.48
77112;BME280;66064;50.226;14.344;2023-03-01T02:32:02;100734.28;;;-6.30;87.67
77112;BME280;66064;50.226;14.344;2023-03-01T02:34:31;100725.03;;;-6.37;87.43
77112;BME280;66064;50.226;14.344;2023-03-01T02:37:02;100732.59;;;-6.29;87.79
77112;BME280;66064;50.226;14.344;2023-03-01T02:39:38;100729.63;;;-6.43;87.28
77112;BME280;66064;50.226;14.344;2023-03-01T02:42:11;100675.84;;;-6.73;87.11
77112;BME280;66064;50.226;14.344;2023-03-01T02:44:38;100713.22;;;-6.52;89.38
77112;BME280;66064;50.226;14.344;2023-03-01T02:47:04;100703.34;;;-6.56;89.70
77112;BME280;66064;50.226;14.344;2023-03-01T02:49:34;100716.34;;;-6.37;89.62
77112;BME280;66064;50.226;14.344;2023-03-01T02:52:48;100720.78;;;-6.36;88.36
77112;BME280;66064;50.226;14.344;2023-03-01T02:55:20;100723.81;;;-6.40;87.69
77112;BME280;66064;50.226;14.344;2023-03-01T02:57:47;100723.09;;;-6.48;87.11
77112;BME280;66064;50.226;14.344;2023-03-01T03:02:47;100735.00;;;-6.50;89.01
77112;BME280;66064;50.226;14.344;2023-03-01T03:05:28;100736.03;;;-6.48;89.31
77112;BME280;66064;50.226;14.344;2023-03-01T03:07:54;100735.00;;;-6.50;88.44
77112;BME280;66064;50.226;14.344;2023-03-01T03:10:23;100730.13;;;-6.55;88.85
77112;BME280;66064;50.226;14.344;2023-03-01T03:12:55;100693.66;;;-6.67;89.08
77112;BME280;66064;50.226;14.344;2023-03-01T03:15:22;100698.06;;;-6.66;89.39
77112;BME280;66064;50.226;14.344;2023-03-01T03:17:48;100723.44;;;-6.53;89.45
77112;BME280;66064;50.226;14.344;2023-03-01T03:20:16;100718.66;;;-6.49;89.34
77112;BME280;66064;50.226;14.344;2023-03-01T03:22:52;100721.25;;;-6.49;90.12
77112;BME280;66064;50.226;14.344;2023-03-01T03:25:19;100721.47;;;-6.56;88.84
77112;BME280;66064;50.226;14.344;2023-03-01T03:27:47;100709.19;;;-6.67;88.71
77112;BME280;66064;50.226;14.344;2023-03-01T03:30:17;100714.34;;;-6.67;88.11
77112;BME280;66064;50.226;14.344;2023-03-01T03:32:46;100707.16;;;-6.61;90.36
77112;BME280;66064;50.226;14.344;2023-03-01T03:35:23;100712.19;;;-6.62;89.37
77112;BME280;66064;50.226;14.344;2023-03-01T03:37:50;100704.00;;;-6.67;89.51
77112;BME280;66064;50.226;14.344;2023-03-01T03:40:31;100703.69;;;-6.70;89.47
77112;BME280;66064;50.226;14.344;2023-03-01T03:42:57;100672.72;;;-6.87;90.09
77112;BME280;66064;50.226;14.344;2023-03-01T03:45:23;100681.19;;;-6.80;90.08
77112;BME280;66064;50.226;14.344;2023-03-01T03:47:49;100689.50;;;-6.65;91.24
77112;BME280;66064;50.226;14.344;2023-03-01T03:50:17;100684.16;;;-6.58;91.09
77112;BME280;66064;50.226;14.344;2023-03-01T03:52:43;100684.63;;;-6.62;90.60
77112;BME280;66064;50.226;14.344;2023-03-01T03:55:11;100675.03;;;-6.63;90.83
77112;BME280;66064;50.226;14.344;2023-03-01T03:57:38;100680.50;;;-6.60;91.59
77112;BME280;66064;50.226;14.344;2023-03-01T04:00:06;100664.97;;;-6.60;90.98
77112;BME280;66064;50.226;14.344;2023-03-01T04:02:39;100683.63;;;-6.45;91.27
77112;BME280;66064;50.226;14.344;2023-03-01T04:05:07;100672.84;;;-6.50;91.34
77112;BME280;66064;50.226;14.344;2023-03-01T04:07:34;100664.34;;;-6.57;89.99
77112;BME280;66064;50.226;14.344;2023-03-01T04:10:05;100681.94;;;-6.45;90.78
77112;BME280;66064;50.226;14.344;2023-03-01T04:12:33;100676.78;;;-6.45;91.38
77112;BME280;66064;50.226;14.344;2023-03-01T04:15:04;100677.75;;;-6.53;90.82
77112;BME280;66064;50.226;14.344;2023-03-01T04:17:43;100670.81;;;-6.71;89.31
77112;BME280;66064;50.226;14.344;2023-03-01T04:20:12;100686.81;;;-6.75;90.18
77112;BME280;66064;50.226;14.344;2023-03-01T04:22:39;100688.34;;;-6.77;89.36
77112;BME280;66064;50.226;14.344;2023-03-01T04:25:06;100694.44;;;-6.77;90.43
77112;BME280;66064;50.226;14.344;2023-03-01T04:27:35;100690.94;;;-6.77;90.44
77112;BME280;66064;50.226;14.344;2023-03-01T04:30:03;100692.50;;;-6.88;89.42
77112;BME280;66064;50.226;14.344;2023-03-01T04:32:29;100697.22;;;-6.92;90.54
77112;BME280;66064;50.226;14.344;2023-03-01T04:34:55;100697.97;;;-6.93;91.18
77112;BME280;66064;50.226;14.344;2023-03-01T04:37:20;100695.09;;;-6.96;90.99
77112;BME280;66064;50.226;14.344;2023-03-01T04:39:46;100698.28;;;-6.90;91.88
77112;BME280;66064;50.226;14.344;2023-03-01T04:42:14;100629.31;;;-7.26;91.22
77112;BME280;66064;50.226;14.344;2023-03-01T04:44:43;100697.97;;;-6.85;91.75
77112;BME280;66064;50.226;14.344;2023-03-01T04:47:10;100696.75;;;-6.88;90.40
77112;BME280;66064;50.226;14.344;2023-03-01T04:49:39;100702.53;;;-6.82;91.44
77112;BME280;66064;50.226;14.344;2023-03-01T04:52:05;100704.06;;;-6.84;91.26
77112;BME280;66064;50.226;14.344;2023-03-01T04:54:33;100698.28;;;-6.90;91.42
77112;BME280;66064;50.226;14.344;2023-03-01T04:56:59;100699.34;;;-6.88;91.10
77112;BME280;66064;50.226;14.344;2023-03-01T04:59:26;100698.28;;;-6.82;91.53
77112;BME280;66064;50.226;14.344;2023-03-01T05:01:52;100693.97;;;-6.81;91.18
77112;BME280;66064;50.226;14.344;2023-03-01T05:04:24;100680.31;;;-6.89;91.30
77112;BME280;66064;50.226;14.344;2023-03-01T05:06:50;100667.41;;;-6.97;91.43
77112;BME280;66064;50.226;14.344;2023-03-01T05:09:16;100679.72;;;-6.86;91.04
77112;BME280;66064;50.226;14.344;2023-03-01T05:11:42;100696.91;;;-6.95;88.92
77112;BME280;66064;50.226;14.344;2023-03-01T05:14:09;100700.91;;;-7.08;88.76
77112;BME280;66064;50.226;14.344;2023-03-01T05:16:35;100694.69;;;-7.10;88.95
77112;BME280;66064;50.226;14.344;2023-03-01T05:19:03;100660.94;;;-7.20;90.48
77112;BME280;66064;50.226;14.344;2023-03-01T05:21:41;100692.09;;;-7.01;91.89
77112;BME280;66064;50.226;14.344;2023-03-01T05:24:26;100685.69;;;-7.04;90.77
77112;BME280;66064;50.226;14.344;2023-03-01T05:26:52;100700.47;;;-7.03;91.95
77112;BME280;66064;50.226;14.344;2023-03-01T05:29:20;100686.34;;;-7.16;90.50
77112;BME280;66064;50.226;14.344;2023-03-01T05:31:57;100694.06;;;-7.07;89.87
77112;BME280;66064;50.226;14.344;2023-03-01T05:34:30;100696.66;;;-7.07;90.09
77112;BME280;66064;50.226;14.344;2023-03-01T05:36:56;100678.53;;;-7.07;91.15
77112;BME280;66064;50.226;14.344;2023-03-01T05:39:25;100682.34;;;-7.03;91.66
77112;BME280;66064;50.226;14.344;2023-03-01T05:41:56;100681.13;;;-6.98;92.07
77112;BME280;66064;50.226;14.344;2023-03-01T05:44:22;100675.66;;;-7.01;91.51
77112;BME280;66064;50.226;14.344;2023-03-01T05:46:49;100669.97;;;-6.97;92.00
77112;BME280;66064;50.226;14.344;2023-03-01T05:49:15;100659.94;;;-6.94;91.33
77112;BME280;66064;50.226;14.344;2023-03-01T05:51:42;100663.28;;;-6.87;92.32
77112;BME280;66064;50.226;14.344;2023-03-01T05:54:09;100673.88;;;-6.75;92.24
77112;BME280;66064;50.226;14.344;2023-03-01T05:56:36;100672.72;;;-6.87;90.51
77112;BME280;66064;50.226;14.344;2023-03-01T05:59:03;100661.81;;;-7.02;89.15
77112;BME280;66064;50.226;14.344;2023-03-01T06:01:33;100676.97;;;-6.88;91.61
77112;BME280;66064;50.226;14.344;2023-03-01T06:03:59;100688.19;;;-6.79;91.33
77112;BME280;66064;50.226;14.344;2023-03-01T06:06:25;100670.59;;;-6.91;90.07
77112;BME280;66064;50.226;14.344;2023-03-01T06:08:52;100669.66;;;-6.83;88.84
77112;BME280;66064;50.226;14.344;2023-03-01T06:11:18;100695.75;;;-6.63;89.90
77112;BME280;66064;50.226;14.344;2023-03-01T06:13:45;100690.56;;;-6.63;88.25
77112;BME280;66064;50.226;14.344;2023-03-01T06:16:12;100705.72;;;-6.49;88.07
77112;BME280;66064;50.226;14.344;2023-03-01T06:18:39;100671.69;;;-6.62;86.93
77112;BME280;66064;50.226;14.344;2023-03-01T06:21:05;100696.25;;;-6.40;87.37
77112;BME280;66064;50.226;14.344;2023-03-01T06:23:32;100695.50;;;-6.39;87.49
77112;BME280;66064;50.226;14.344;2023-03-01T06:25:58;100702.56;;;-6.27;88.20
77112;BME280;66064;50.226;14.344;2023-03-01T06:28:24;100692.72;;;-6.13;87.42
77112;BME280;66064;50.226;14.344;2023-03-01T06:30:50;100687.44;;;-5.95;88.07
77112;BME280;66064;50.226;14.344;2023-03-01T06:33:18;100702.13;;;-5.86;88.55
77112;BME280;66064;50.226;14.344;2023-03-01T06:35:46;100695.00;;;-5.70;87.01
77112;BME280;66064;50.226;14.344;2023-03-01T06:38:12;100688.97;;;-5.60;87.72
77112;BME280;66064;50.226;14.344;2023-03-01T06:40:40;100669.28;;;-5.58;87.59
77112;BME280;66064;50.226;14.344;2023-03-01T06:43:07;100695.56;;;-5.16;86.92
77112;BME280;66064;50.226;14.344;2023-03-01T06:45:33;100657.09;;;-5.01;86.95
77112;BME280;66064;50.226;14.344;2023-03-01T06:48:06;100686.47;;;-4.43;83.64
77112;BME280;66064;50.226;14.344;2023-03-01T06:50:33;100682.06;;;-3.63;82.69
77112;BME280;66064;50.226;14.344;2023-03-01T06:52:59;100681.84;;;-2.92;79.72
77112;BME280;66064;50.226;14.344;2023-03-01T06:55:25;100677.22;;;-1.63;77.49
77112;BME280;66064;50.226;14.344;2023-03-01T06:57:59;100663.53;;;-0.54;72.74
77112;BME280;66064;50.226;14.344;2023-03-01T07:00:26;100661.69;;;0.44;70.37
77112;BME280;66064;50.226;14.344;2023-03-01T07:02:52;100651.22;;;1.23;66.33
77112;BME280;66064;50.226;14.344;2023-03-01T07:05:18;100640.44;;;1.88;63.45
77112;BME280;66064;50.226;14.344;2023-03-01T07:07:44;100664.63;;;2.69;60.23
77112;BME280;66064;50.226;14.344;2023-03-01T07:10:11;100649.56;;;2.96;61.08
77112;BME280;66064;50.226;14.344;2023-03-01T07:12:37;100658.81;;;3.82;57.11
77112;BME280;66064;50.226;14.344;2023-03-01T07:15:04;100657.97;;;4.32;56.26
77112;BME280;66064;50.226;14.344;2023-03-01T07:17:30;100665.25;;;5.05;52.37
77112;BME280;66064;50.226;14.344;2023-03-01T07:19:56;100650.88;;;5.34;51.79
77112;BME280;66064;50.226;14.344;2023-03-01T07:22:22;100649.72;;;5.84;47.67
77112;BME280;66064;50.226;14.344;2023-03-01T07:24:48;100648.06;;;6.05;46.53
77112;BME280;66064;50.226;14.344;2023-03-01T07:27:14;100641.94;;;6.25;45.13
77112;BME280;66064;50.226;14.344;2023-03-01T07:29:40;100641.34;;;6.52;43.91
77112;BME280;66064;50.226;14.344;2023-03-01T07:32:06;100640.00;;;6.21;44.38
77112;BME280;66064;50.226;14.344;2023-03-01T07:34:32;100644.22;;;6.77;45.05
77112;BME280;66064;50.226;14.344;2023-03-01T07:36:58;100639.03;;;7.66;42.82
77112;BME280;66064;50.226;14.344;2023-03-01T07:39:24;100636.19;;;7.84;42.02
77112;BME280;66064;50.226;14.344;2023-03-01T07:41:51;100617.75;;;8.33;40.17
77112;BME280;66064;50.226;14.344;2023-03-01T07:44:17;100617.63;;;9.33;37.66
77112;BME280;66064;50.226;14.344;2023-03-01T07:46:43;100602.72;;;8.58;38.25
77112;BME280;66064;50.226;14.344;2023-03-01T07:49:10;100596.31;;;7.57;39.67
77112;BME280;66064;50.226;14.344;2023-03-01T07:51:36;100620.09;;;8.50;38.86
77112;BME280;66064;50.226;14.344;2023-03-01T07:54:02;100599.94;;;9.62;37.21
77112;BME280;66064;50.226;14.344;2023-03-01T07:56:28;100618.53;;;9.34;37.08
77112;BME280;66064;50.226;14.344;2023-03-01T07:58:54;100607.91;;;9.92;36.88
77112;BME280;66064;50.226;14.344;2023-03-01T08:01:21;100608.78;;;11.21;34.63
77112;BME280;66064;50.226;14.344;2023-03-01T08:03:48;100605.34;;;12.04;32.93
77112;BME280;66064;50.226;14.344;2023-03-01T08:06:16;100603.13;;;12.25;31.30
77112;BME280;66064;50.226;14.344;2023-03-01T08:08:42;100600.63;;;11.51;32.65
77112;BME280;66064;50.226;14.344;2023-03-01T08:11:11;100611.31;;;11.51;32.63
77112;BME280;66064;50.226;14.344;2023-03-01T08:13:37;100604.31;;;11.96;31.27
77112;BME280;66064;50.226;14.344;2023-03-01T08:16:06;100611.69;;;12.09;30.66
77112;BME280;66064;50.226;14.344;2023-03-01T08:18:33;100613.69;;;11.03;32.59
77112;BME280;66064;50.226;14.344;2023-03-01T08:21:16;100587.56;;;10.56;34.31
77112;BME280;66064;50.226;14.344;2023-03-01T08:23:43;100568.34;;;12.20;32.02
77112;BME280;66064;50.226;14.344;2023-03-01T08:26:11;100579.53;;;12.96;30.46
77112;BME280;66064;50.226;14.344;2023-03-01T08:28:39;100559.72;;;13.38;29.30
77112;BME280;66064;50.226;14.344;2023-03-01T08:31:21;100576.81;;;12.43;31.37
77112;BME280;66064;50.226;14.344;2023-03-01T08:33:48;100575.13;;;13.00;30.36
77112;BME280;66064;50.226;14.344;2023-03-01T08:36:17;100576.44;;;13.85;28.21
77112;BME280;66064;50.226;14.344;2023-03-01T08:38:43;100574.56;;;13.17;30.02
77112;BME280;66064;50.226;14.344;2023-03-01T08:41:10;100573.34;;;13.00;29.88
77112;BME280;66064;50.226;14.344;2023-03-01T08:43:35;100564.47;;;15.16;27.37
77112;BME280;66064;50.226;14.344;2023-03-01T08:46:01;100553.34;;;14.68;27.53
77112;BME280;66064;50.226;14.344;2023-03-01T08:48:28;100555.84;;;13.76;28.77
77112;BME280;66064;50.226;14.344;2023-03-01T08:50:54;100575.25;;;14.32;27.68
77112;BME280;66064;50.226;14.344;2023-03-01T08:53:20;100578.00;;;13.68;27.58
77112;BME280;66064;50.226;14.344;2023-03-01T08:55:46;100578.41;;;13.35;28.43
77112;BME280;66064;50.226;14.344;2023-03-01T08:58:12;100559.06;;;14.22;26.86
77112;BME280;66064;50.226;14.344;2023-03-01T09:00:38;100577.03;;;13.61;28.15
77112;BME280;66064;50.226;14.344;2023-03-01T09:03:05;100542.66;;;13.91;27.83
77112;BME280;66064;50.226;14.344;2023-03-01T09:05:33;100555.22;;;12.79;28.98
77112;BME280;66064;50.226;14.344;2023-03-01T09:07:59;100544.63;;;13.40;28.34
77112;BME280;66064;50.226;14.344;2023-03-01T09:10:25;100546.72;;;12.53;29.14
77112;BME280;66064;50.226;14.344;2023-03-01T09:12:51;100550.25;;;12.52;29.69
77112;BME280;66064;50.226;14.344;2023-03-01T09:15:17;100546.88;;;13.14;29.19
77112;BME280;66064;50.226;14.344;2023-03-01T09:17:43;100534.34;;;13.70;27.51
77112;BME280;66064;50.226;14.344;2023-03-01T09:20:10;100532.59;;;14.49;27.40
77112;BME280;66064;50.226;14.344;2023-03-01T09:22:36;100552.97;;;15.32;25.48
77112;BME280;66064;50.226;14.344;2023-03-01T09:25:02;100544.63;;;14.91;25.92
77112;BME280;66064;50.226;14.344;2023-03-01T09:27:28;100533.69;;;13.88;27.16
77112;BME280;66064;50.226;14.344;2023-03-01T09:29:54;100521.94;;;15.69;26.13
77112;BME280;66064;50.226;14.344;2023-03-01T09:32:21;100535.41;;;14.61;25.61
77112;BME280;66064;50.226;14.344;2023-03-01T09:34:47;100536.56;;;14.05;26.51
77112;BME280;66064;50.226;14.344;2023-03-01T09:37:33;100532.53;;;13.69;26.92
77112;BME280;66064;50.226;14.344;2023-03-01T09:39:59;100504.59;;;14.20;26.25
77112;BME280;66064;50.226;14.344;2023-03-01T09:42:25;100507.41;;;14.33;26.69
77112;BME280;66064;50.226;14.344;2023-03-01T09:45:03;100516.69;;;14.66;26.13
77112;BME280;66064;50.226;14.344;2023-03-01T09:47:34;100530.34;;;14.95;25.91
77112;BME280;66064;50.226;14.344;2023-03-01T09:50:16;100515.00;;;13.92;26.12
77112;BME280;66064;50.226;14.344;2023-03-01T09:53:06;100514.38;;;15.10;25.95
77112;BME280;66064;50.226;14.344;2023-03-01T09:55:52;100504.53;;;14.15;26.50
77112;BME280;66064;50.226;14.344;2023-03-01T10:01:33;100504.41;;;14.94;25.16
77112;BME280;66064;50.226;14.344;2023-03-01T10:04:05;100483.19;;;15.21;24.49
77112;BME280;66064;50.226;14.344;2023-03-01T10:06:35;100501.09;;;15.24;24.85
77112;BME280;66064;50.226;14.344;2023-03-01T10:09:13;100505.91;;;15.93;23.62
77112;BME280;66064;50.226;14.344;2023-03-01T10:11:53;100491.13;;;15.06;24.07
77112;BME280;66064;50.226;14.344;2023-03-01T10:14:27;100503.09;;;14.43;25.45
77112;BME280;66064;50.226;14.344;2023-03-01T10:17:02;100491.69;;;16.25;24.70
77112;BME280;66064;50.226;14.344;2023-03-01T10:19:44;100480.13;;;16.93;23.09
77112;BME280;66064;50.226;14.344;2023-03-01T10:22:18;100489.97;;;16.63;22.62
77112;BME280;66064;50.226;14.344;2023-03-01T10:24:47;100485.34;;;17.61;21.63
77112;BME280;66064;50.226;14.344;2023-03-01T10:29:59;100475.53;;;16.08;23.42
77112;BME280;66064;50.226;14.344;2023-03-01T10:32:26;100474.66;;;16.12;23.50
77112;BME280;66064;50.226;14.344;2023-03-01T10:34:52;100412.91;;;16.50;22.25
77112;BME280;66064;50.226;14.344;2023-03-01T10:37:20;100479.53;;;15.13;24.43
77112;BME280;66064;50.226;14.344;2023-03-01T10:40:02;100483.28;;;15.43;22.95
77112;BME280;66064;50.226;14.344;2023-03-01T10:42:33;100471.06;;;14.55;23.88
77112;BME280;66064;50.226;14.344;2023-03-01T10:45:16;100480.59;;;15.43;23.82
77112;BME280;66064;50.226;14.344;2023-03-01T10:47:43;100475.38;;;15.64;24.15
77112;BME280;66064;50.226;14.344;2023-03-01T10:50:20;100471.44;;;15.02;24.72
77112;BME280;66064;50.226;14.344;2023-03-01T10:53:01;100461.31;;;16.84;23.54
77112;BME280;66064;50.226;14.344;2023-03-01T10:55:37;100460.22;;;15.80;23.25
77112;BME280;66064;50.226;14.344;2023-03-01T10:58:19;100430.56;;;15.48;22.96
77112;BME280;66064;50.226;14.344;2023-03-01T11:00:57;100446.97;;;16.74;22.80
77112;BME280;66064;50.226;14.344;2023-03-01T11:03:25;100447.88;;;16.84;22.51
77112;BME280;66064;50.226;14.344;2023-03-01T11:05:57;100446.88;;;15.90;23.54
77112;BME280;66064;50.226;14.344;2023-03-01T11:08:39;100433.16;;;14.16;25.35
77112;BME280;66064;50.226;14.344;2023-03-01T11:13:33;100433.53;;;16.75;22.64
77112;BME280;66064;50.226;14.344;2023-03-01T11:16:02;100431.63;;;15.86;23.80
77112;BME280;66064;50.226;14.344;2023-03-01T11:18:29;100420.06;;;17.03;22.91
77112;BME280;66064;50.226;14.344;2023-03-01T11:20:56;100426.34;;;16.21;23.08
77112;BME280;66064;50.226;14.344;2023-03-01T11:23:24;100405.44;;;17.77;23.25
77112;BME280;66064;50.226;14.344;2023-03-01T11:25:55;100403.97;;;18.62;20.63
77112;BME280;66064;50.226;14.344;2023-03-01T11:28:23;100397.66;;;16.96;22.74
77112;BME280;66064;50.226;14.344;2023-03-01T11:30:55;100411.78;;;17.67;21.94
77112;BME280;66064;50.226;14.344;2023-03-01T11:33:53;100410.00;;;15.50;23.98
77112;BME280;66064;50.226;14.344;2023-03-01T11:36:28;100397.00;;;14.63;24.84
77112;BME280;66064;50.226;14.344;2023-03-01T11:38:56;100404.47;;;15.15;24.93
77112;BME280;66064;50.226;14.344;2023-03-01T11:41:29;100372.59;;;15.85;24.10
77112;BME280;66064;50.226;14.344;2023-03-01T11:43:59;100389.50;;;15.61;25.12
77112;BME280;66064;50.226;14.344;2023-03-01T11:55:17;100362.66;;;17.16;22.64
77112;BME280;66064;50.226;14.344;2023-03-01T12:01:02;100370.63;;;15.35;23.65
77112;BME280;66064;50.226;14.344;2023-03-01T12:28:41;100358.75;;;14.86;25.09
77112;BME280;66064;50.226;14.344;2023-03-01T12:38:41;100334.13;;;16.16;24.99
77112;BME280;66064;50.226;14.344;2023-03-01T12:44:04;100336.53;;;15.13;24.65
77112;BME280;66064;50.226;14.344;2023-03-01T12:46:59;100339.81;;;14.55;25.10
77112;BME280;66064;50.226;14.344;2023-03-01T12:49:43;100338.16;;;14.79;24.64
77112;BME280;66064;50.226;14.344;2023-03-01T12:52:16;100329.31;;;14.95;24.89
77112;BME280;66064;50.226;14.344;2023-03-01T12:54:46;100315.31;;;16.34;23.15
77112;BME280;66064;50.226;14.344;2023-03-01T13:10:59;100297.38;;;16.64;23.85
77112;BME280;66064;50.226;14.344;2023-03-01T13:13:28;100306.06;;;14.94;24.53
77112;BME280;66064;50.226;14.344;2023-03-01T13:15:54;100297.63;;;14.24;25.28
77112;BME280;66064;50.226;14.344;2023-03-01T13:20:50;100310.13;;;14.25;25.91
77112;BME280;66064;50.226;14.344;2023-03-01T13:26:10;100302.25;;;14.42;27.81
77112;BME280;66064;50.226;14.344;2023-03-01T13:28:51;100293.97;;;14.16;27.07
77112;BME280;66064;50.226;14.344;2023-03-01T13:33:55;100273.63;;;13.35;28.58
77112;BME280;66064;50.226;14.344;2023-03-01T13:39:00;100288.94;;;13.49;27.98
77112;BME280;66064;50.226;14.344;2023-03-01T13:46:44;100242.72;;;12.14;29.23
77112;BME280;66064;50.226;14.344;2023-03-01T13:49:18;100283.91;;;12.35;29.95
77112;BME280;66064;50.226;14.344;2023-03-01T13:51:51;100279.00;;;11.52;30.84
77112;BME280;66064;50.226;14.344;2023-03-01T13:54:26;100266.59;;;11.07;31.95
77112;BME280;66064;50.226;14.344;2023-03-01T13:56:56;100301.50;;;10.37;33.03
77112;BME280;66064;50.226;14.344;2023-03-01T13:59:23;100289.75;;;9.93;33.47
77112;BME280;66064;50.226;14.344;2023-03-01T14:01:54;100271.22;;;9.27;34.53
77112;BME280;66064;50.226;14.344;2023-03-01T14:04:31;100286.50;;;8.71;35.95
77112;BME280;66064;50.226;14.344;2023-03-01T14:07:19;100295.09;;;8.94;36.68
77112;BME280;66064;50.226;14.344;2023-03-01T14:09:48;100299.50;;;8.93;37.16
77112;BME280;66064;50.226;14.344;2023-03-01T14:12:58;100294.00;;;8.56;38.19
77112;BME280;66064;50.226;14.344;2023-03-01T14:15:36;100290.94;;;8.72;37.89
77112;BME280;66064;50.226;14.344;2023-03-01T14:18:21;100301.22;;;8.60;38.18
77112;BME280;66064;50.226;14.344;2023-03-01T14:20:49;100291.84;;;8.43;37.87
77112;BME280;66064;50.226;14.344;2023-03-01T14:23:21;100255.34;;;8.07;38.71
77112;BME280;66064;50.226;14.344;2023-03-01T14:25:48;100289.59;;;8.29;38.79
77112;BME280;66064;50.226;14.344;2023-03-01T14:28:18;100286.03;;;8.27;39.04